Time;durP1;ratioP1;P1;durP2;ratioP2;P2;SDS_P1;SDS_P2;PMS_P1;PMS_P2;Temp;Humidity;BMP_temperature;BMP_pressure;BME280_temperature;BME280_humidity;BME280_pressure;Samples;Min_cycle;Max_cycle;Signal;HPM_P1;HPM_P2
2023/05/26 00:03:51;;;;;;;9.82;4.13;;;23.30;52.80;;;;;;10539947;28;20097;-23
2023/05/26 00:08:53;;;;;;;9.52;4.10;;;23.20;52.70;;;;;;10530585;28;20052;-23
2023/05/26 00:13:56;;;;;;;7.72;4.20;;;23.20;52.70;;;;;;10533955;28;20568;-23
2023/05/26 00:18:58;;;;;;;8.63;3.53;;;23.10;52.70;;;;;;10525983;28;20044;-24
2023/05/26 00:24:00;;;;;;;9.55;4.43;;;23.10;52.60;;;;;;10532870;28;20071;-24
2023/05/26 00:29:03;;;;;;;7.60;3.30;;;23.00;52.60;;;;;;10532954;28;20048;-23
2023/05/26 00:34:05;;;;;;;7.88;3.85;;;23.00;52.70;;;;;;10529886;28;20454;-23
2023/05/26 00:39:07;;;;;;;8.77;4.43;;;22.80;52.80;;;;;;10546410;28;20143;-23
2023/05/26 00:44:10;;;;;;;;;;;22.80;52.70;;;;;;10522252;28;20047;-24
2023/05/26 00:49:12;;;;;;;13.77;4.13;;;22.80;53.10;;;;;;10533385;28;19955;-23
2023/05/26 00:54:14;;;;;;;9.90;4.40;;;22.70;53.00;;;;;;10530254;28;20048;-23
2023/05/26 00:59:17;;;;;;;;;;;22.70;52.70;;;;;;10516992;28;20048;-23
2023/05/26 01:04:20;;;;;;;10.65;4.78;;;22.60;52.80;;;;;;10529107;28;19964;-24
2023/05/26 01:09:23;;;;;;;10.15;4.15;;;22.60;52.60;;;;;;10518361;28;20404;-23
2023/05/26 01:14:31;;;;;;;8.57;3.97;;;22.60;53.20;;;;;;10517663;28;20068;-23
2023/05/26 01:20:09;;;;;;;11.35;4.60;;;22.50;53.10;;;;;;10527863;28;20503;-24
2023/05/26 01:25:32;;;;;;;11.95;3.92;;;22.40;52.90;;;;;;10523228;28;20105;-23
2023/05/26 01:30:36;;;;;;;9.52;4.10;;;22.40;53.20;;;;;;10533701;28;20048;-24
2023/05/26 01:35:38;;;;;;;9.88;4.22;;;22.40;53.20;;;;;;10529945;28;20071;-24
2023/05/26 01:40:41;;;;;;;;;;;22.40;53.10;;;;;;10527038;28;20561;-23
2023/05/26 01:45:49;;;;;;;9.45;4.43;;;22.20;53.10;;;;;;10531771;28;19920;-23
2023/05/26 01:50:54;;;;;;;10.25;4.50;;;22.30;53.10;;;;;;10524346;28;20132;-24
2023/05/26 01:55:58;;;;;;;8.50;4.03;;;22.20;53.00;;;;;;10530258;28;20134;-23
2023/05/26 02:01:03;;;;;;;9.00;3.65;;;22.20;53.50;;;;;;10531252;28;20075;-25
2023/05/26 02:06:06;;;;;;;9.48;2.97;;;22.10;53.20;;;;;;10522532;28;20085;-24
2023/05/26 02:11:08;;;;;;;8.90;3.72;;;22.10;53.80;;;;;;10537294;28;20044;-24
2023/05/26 02:16:13;;;;;;;9.30;4.35;;;22.10;53.00;;;;;;10533081;28;20044;-23
2023/05/26 02:21:15;;;;;;;9.80;3.78;;;22.00;53.40;;;;;;10524625;28;20040;-23
2023/05/26 02:26:17;;;;;;;;;;;22.00;53.10;;;;;;10531640;28;20131;-23
2023/05/26 02:31:20;;;;;;;8.03;3.37;;;22.00;53.20;;;;;;10534351;28;19958;-23
2023/05/26 02:36:22;;;;;;;10.55;3.85;;;21.90;53.50;;;;;;10529530;28;20889;-23
2023/05/26 02:41:25;;;;;;;6.22;2.78;;;21.80;53.70;;;;;;10518936;28;20127;-23
2023/05/26 02:46:28;;;;;;;10.10;3.53;;;21.80;53.20;;;;;;10534492;28;20484;-25
2023/05/26 02:51:30;;;;;;;10.20;3.65;;;21.80;53.60;;;;;;10523767;28;20044;-23
2023/05/26 02:56:32;;;;;;;;;;;21.70;53.30;;;;;;10523929;28;20044;-22
2023/05/26 03:15:34;;;;;;;9.65;3.28;;;22.10;52.40;;;;;;10545286;27;20584;-22
2023/05/26 03:20:36;;;;;;;11.82;3.83;;;21.70;53.20;;;;;;10529179;28;20048;-22
2023/05/26 03:25:38;;;;;;;6.55;2.72;;;21.60;53.30;;;;;;10522456;28;20040;-22
2023/05/26 03:30:41;;;;;;;7.25;3.45;;;21.50;53.30;;;;;;10527725;28;20048;-25
2023/05/26 03:35:43;;;;;;;9.95;3.33;;;21.50;53.50;;;;;;10535943;28;20445;-23
2023/05/26 03:40:45;;;;;;;10.30;3.08;;;21.50;53.60;;;;;;10540806;28;20058;-22
2023/05/26 03:45:48;;;;;;;5.97;3.25;;;21.50;53.40;;;;;;10524349;28;20143;-23
2023/05/26 03:50:50;;;;;;;6.97;2.67;;;21.40;53.50;;;;;;10523993;28;20075;-23
2023/05/26 03:55:52;;;;;;;6.75;3.00;;;21.40;53.20;;;;;;10522713;28;20484;-23
2023/05/26 04:00:57;;;;;;;6.22;2.58;;;21.40;53.30;;;;;;10525723;28;20070;-23
2023/05/26 04:06:00;;;;;;;6.32;2.33;;;21.40;53.80;;;;;;10522139;28;20449;-24
2023/05/26 04:11:01;;;;;;;6.80;2.83;;;21.30;53.50;;;;;;10529215;28;20144;-24
2023/05/26 04:16:05;;;;;;;6.78;2.90;;;21.30;53.50;;;;;;10523573;28;20131;-24
2023/05/26 04:21:08;;;;;;;6.65;2.55;;;21.30;53.80;;;;;;10518116;28;20044;-24
2023/05/26 04:26:09;;;;;;;;;;;21.30;53.50;;;;;;10503147;28;20381;-24
2023/05/26 04:31:16;;;;;;;5.97;2.90;;;21.30;53.60;;;;;;10491480;28;19931;-24
2023/05/26 04:36:18;;;;;;;7.57;2.30;;;21.30;53.70;;;;;;10486142;28;20718;-24
2023/05/26 04:41:20;;;;;;;7.80;2.60;;;21.30;53.60;;;;;;10487777;28;20117;-24
2023/05/26 04:46:23;;;;;;;7.38;2.67;;;21.20;53.80;;;;;;10489093;28;20135;-24
2023/05/26 04:51:25;;;;;;;7.72;2.63;;;21.30;53.40;;;;;;10499788;28;20106;-24
2023/05/26 04:56:27;;;;;;;7.35;2.40;;;21.20;53.70;;;;;;10482779;28;20497;-23
2023/05/26 05:01:32;;;;;;;6.85;2.33;;;21.20;53.20;;;;;;10490815;28;20127;-24
2023/05/26 05:06:34;;;;;;;4.85;2.40;;;21.20;53.80;;;;;;10494486;28;20063;-25
2023/05/26 05:11:36;;;;;;;5.13;2.20;;;21.30;53.40;;;;;;10489547;28;20157;-24
2023/05/26 05:16:41;;;;;;;5.80;2.08;;;21.40;53.60;;;;;;10493731;28;20044;-23
2023/05/26 05:21:43;;;;;;;6.35;2.38;;;21.30;53.30;;;;;;10498467;28;20072;-24
2023/05/26 05:26:45;;;;;;;6.70;2.33;;;21.20;53.60;;;;;;10483036;28;20057;-23
2023/05/26 05:31:48;;;;;;;6.40;2.38;;;21.10;53.70;;;;;;10487213;28;20131;-24
2023/05/26 05:36:50;;;;;;;8.38;2.22;;;21.30;53.60;;;;;;10498441;28;20164;-24
2023/05/26 05:41:52;;;;;;;7.22;2.50;;;21.20;53.90;;;;;;10491359;28;20078;-24
2023/05/26 05:46:55;;;;;;;7.07;2.38;;;21.20;53.70;;;;;;10490086;28;20447;-24
2023/05/26 05:51:57;;;;;;;7.93;2.83;;;21.20;54.00;;;;;;10493957;28;20719;-24
2023/05/26 05:57:00;;;;;;;7.25;2.65;;;21.20;53.60;;;;;;10473526;28;20139;-24
2023/05/26 06:02:03;;;;;;;7.55;3.42;;;21.30;54.00;;;;;;10480380;28;20051;-24
2023/05/26 06:07:05;;;;;;;11.10;4.57;;;21.30;53.60;;;;;;10481932;28;20066;-24
2023/05/26 06:12:07;;;;;;;9.68;3.05;;;21.60;53.50;;;;;;10486935;28;20152;-23
2023/05/26 06:17:10;;;;;;;7.72;2.17;;;21.50;53.70;;;;;;10483482;28;20075;-24
2023/05/26 06:22:12;;;;;;;7.00;1.85;;;21.80;53.10;;;;;;10489824;28;20162;-24
2023/05/26 06:27:14;;;;;;;11.93;2.10;;;21.80;52.70;;;;;;10499661;28;20045;-24
2023/05/26 06:32:17;;;;;;;5.93;2.22;;;21.70;53.00;;;;;;10482509;28;20139;-24
2023/05/26 06:37:19;;;;;;;9.27;3.05;;;22.00;52.90;;;;;;10502775;28;20442;-24
2023/05/26 06:42:21;;;;;;;8.93;3.13;;;21.40;53.30;;;;;;10483447;28;20041;-24
2023/05/26 06:47:24;;;;;;;10.52;3.72;;;21.60;53.30;;;;;;10478032;28;20525;-24
2023/05/26 06:52:26;;;;;;;11.38;4.05;;;21.60;53.40;;;;;;10491107;28;20512;-24
2023/05/26 06:57:28;;;;;;;13.10;4.20;;;21.30;52.80;;;;;;10485809;28;20052;-24
2023/05/26 07:02:31;;;;;;;8.38;2.30;;;21.70;53.10;;;;;;10482776;28;20400;-24
2023/05/26 07:07:33;;;;;;;12.48;2.78;;;21.80;53.10;;;;;;10485825;28;20131;-24
2023/05/26 07:12:35;;;;;;;12.77;2.65;;;21.80;52.40;;;;;;10491595;28;20087;-24
2023/05/26 07:17:38;;;;;;;11.52;2.92;;;22.00;52.30;;;;;;10491843;28;20068;-23
2023/05/26 07:22:40;;;;;;;11.88;3.13;;;21.60;52.90;;;;;;10495519;28;20404;-24
2023/05/26 07:27:42;;;;;;;12.00;3.63;;;21.70;52.60;;;;;;10491631;28;20131;-24
2023/05/26 07:32:45;;;;;;;12.00;4.57;;;22.00;51.90;;;;;;10501300;28;20098;-24
2023/05/26 07:37:47;;;;;;;17.45;5.07;;;22.00;52.50;;;;;;10503213;28;20076;-24
2023/05/26 07:42:50;;;;;;;12.88;3.72;;;22.00;53.50;;;;;;10486520;28;20136;-24
2023/05/26 07:47:53;;;;;;;10.02;3.60;;;22.10;52.80;;;;;;10493720;28;20051;-24
2023/05/26 07:52:55;;;;;;;9.40;2.78;;;22.00;52.70;;;;;;10485511;28;20509;-24
2023/05/26 07:57:57;;;;;;;8.38;2.28;;;22.10;52.90;;;;;;10492592;28;20097;-25
2023/05/26 08:03:00;;;;;;;8.88;2.55;;;22.10;52.80;;;;;;10500946;28;20082;-24
2023/05/26 08:08:02;;;;;;;9.20;2.53;;;22.40;52.50;;;;;;10490882;28;20175;-24
2023/05/26 08:13:04;;;;;;;7.32;3.28;;;22.30;52.70;;;;;;10491354;28;20061;-25
2023/05/26 08:18:07;;;;;;;7.82;2.70;;;22.40;52.60;;;;;;10492853;28;20222;-25
2023/05/26 08:23:09;;;;;;;8.55;2.58;;;22.30;52.90;;;;;;10493768;28;20098;-24
2023/05/26 08:28:11;;;;;;;10.10;2.70;;;22.40;52.50;;;;;;10494288;28;20079;-24
2023/05/26 08:33:14;;;;;;;7.03;2.33;;;22.40;52.50;;;;;;10495195;28;20474;-24
2023/05/26 08:38:16;;;;;;;7.50;2.72;;;22.50;52.70;;;;;;10484357;28;20041;-24
2023/05/26 08:43:23;;;;;;;7.68;3.40;;;22.60;52.40;;;;;;10491436;28;20086;-24
2023/05/26 08:48:26;;;;;;;13.40;4.53;;;22.50;52.60;;;;;;10495682;28;20059;-24
2023/05/26 08:53:31;;;;;;;10.75;3.78;;;22.60;52.60;;;;;;10498163;28;20538;-23
2023/05/26 08:58:34;;;;;;;9.13;3.83;;;22.90;51.80;;;;;;10494336;28;20045;-23
2023/05/26 09:03:37;;;;;;;18.40;4.10;;;22.60;52.50;;;;;;10493886;28;20409;-24
2023/05/26 09:08:39;;;;;;;6.90;3.35;;;22.60;52.70;;;;;;10500735;28;20071;-24
2023/05/26 09:13:41;;;;;;;;;;;22.50;53.20;;;;;;10491820;28;20091;-24
2023/05/26 09:18:44;;;;;;;9.48;3.88;;;22.60;52.70;;;;;;10491827;28;20431;-24
2023/05/26 09:23:54;;;;;;;9.20;3.78;;;22.60;52.90;;;;;;10486217;28;20052;-23
2023/05/26 09:28:56;;;;;;;9.85;3.97;;;22.50;52.00;;;;;;10485832;28;20509;-23
2023/05/26 09:34:00;;;;;;;7.70;3.53;;;22.70;53.70;;;;;;10494434;28;20131;-24
2023/05/26 09:39:02;;;;;;;12.48;2.80;;;22.80;53.30;;;;;;10494222;28;20083;-23
2023/05/26 09:44:11;;;;;;;8.85;3.25;;;22.90;53.10;;;;;;10494951;28;20078;-24
2023/05/26 09:49:15;;;;;;;7.90;2.70;;;22.90;53.10;;;;;;10492564;28;20079;-24
2023/05/26 09:54:17;;;;;;;9.98;3.35;;;22.90;53.20;;;;;;10490648;28;20045;-23
2023/05/26 09:59:21;;;;;;;8.05;2.67;;;23.10;53.10;;;;;;10490165;28;20143;-23
2023/05/26 10:04:25;;;;;;;4.70;2.17;;;23.40;52.30;;;;;;10496495;28;20107;-24
2023/05/26 10:09:28;;;;;;;8.77;2.53;;;23.20;52.50;;;;;;10488694;28;20090;-24
2023/05/26 10:14:30;;;;;;;8.60;3.05;;;23.50;52.00;;;;;;10497272;28;20058;-24
2023/05/26 10:19:33;;;;;;;8.93;2.58;;;23.40;52.40;;;;;;10489412;28;20053;-24
2023/05/26 10:24:39;;;;;;;6.32;2.03;;;23.70;52.50;;;;;;10486124;28;20797;-24
2023/05/26 10:29:47;;;;;;;6.15;2.30;;;23.30;51.50;;;;;;10490349;28;20127;-23
2023/05/26 10:34:51;;;;;;;5.03;2.30;;;23.80;51.30;;;;;;10493682;28;20056;-24
2023/05/26 10:39:53;;;;;;;5.68;2.50;;;23.70;52.10;;;;;;10494469;28;20041;-23
2023/05/26 10:44:56;;;;;;;7.82;2.90;;;23.70;52.50;;;;;;10487053;28;20123;-24
2023/05/26 10:50:00;;;;;;;7.68;2.05;;;23.70;52.00;;;;;;10487981;28;20093;-23
2023/05/26 10:55:02;;;;;;;5.97;1.90;;;23.70;52.10;;;;;;10495023;28;20047;-24
2023/05/26 11:00:19;;;;;;;5.13;2.15;;;23.80;51.70;;;;;;10493366;28;20123;-24
2023/05/26 11:05:33;;;;;;;5.90;2.17;;;23.80;52.70;;;;;;10495467;28;20048;-24
2023/05/26 11:10:58;;;;;;;4.97;2.10;;;23.90;51.50;;;;;;10494258;28;20045;-23
2023/05/26 11:16:11;;;;;;;8.05;2.33;;;23.70;51.60;;;;;;10489316;28;20481;-23
2023/05/26 11:21:15;;;;;;;6.97;1.92;;;23.70;52.20;;;;;;10485853;28;20050;-23
2023/05/26 11:26:17;;;;;;;13.70;2.50;;;23.90;52.30;;;;;;10482566;28;20113;-24
2023/05/26 11:31:19;;;;;;;;;;;24.20;51.20;;;;;;10489821;28;20050;-23
2023/05/26 11:36:22;;;;;;;;;;;24.20;51.80;;;;;;10494240;28;20567;-24
2023/05/26 11:41:26;;;;;;;5.53;1.83;;;23.80;52.10;;;;;;10490715;28;19994;-23
2023/05/26 11:46:30;;;;;;;5.53;1.90;;;23.90;52.90;;;;;;10482146;28;20094;-25
2023/05/26 11:51:33;;;;;;;10.45;2.25;;;23.80;51.90;;;;;;10481166;28;20124;-23
2023/05/26 11:56:36;;;;;;;8.10;2.08;;;24.10;52.30;;;;;;10492756;28;20045;-23
2023/05/26 12:01:38;;;;;;;6.80;1.63;;;24.80;50.50;;;;;;10489716;28;20452;-24
2023/05/26 12:06:44;;;;;;;7.20;1.90;;;24.80;50.10;;;;;;10495773;28;20072;-24
2023/05/26 12:11:48;;;;;;;5.43;2.28;;;24.70;49.60;;;;;;10486259;28;20090;-28
2023/05/26 12:16:51;;;;;;;8.20;1.88;;;24.90;49.20;;;;;;10505080;28;20062;-24
2023/05/26 12:21:58;;;;;;;6.80;1.90;;;25.00;49.90;;;;;;10491639;28;20040;-23
2023/05/26 12:27:06;;;;;;;6.35;2.10;;;25.00;50.00;;;;;;10502599;28;20041;-23
2023/05/26 12:32:11;;;;;;;4.03;1.70;;;25.30;50.40;;;;;;10493495;28;20045;-24
2023/05/26 12:37:14;;;;;;;7.13;1.67;;;25.50;50.70;;;;;;10489788;28;20052;-24
2023/05/26 12:42:16;;;;;;;3.92;1.52;;;25.60;50.00;;;;;;10484996;28;20044;-23
2023/05/26 12:47:18;;;;;;;11.82;2.13;;;25.60;50.50;;;;;;10491484;28;20047;-23
2023/05/26 12:52:22;;;;;;;7.07;1.90;;;26.70;46.20;;;;;;10499775;28;20036;-24
2023/05/26 12:57:24;;;;;;;3.05;1.38;;;26.10;48.80;;;;;;10502432;28;20128;-24
2023/05/26 13:02:26;;;;;;;3.85;1.40;;;26.00;50.20;;;;;;10488878;28;20083;-23
2023/05/26 13:07:29;;;;;;;7.05;1.13;;;26.20;50.00;;;;;;10499237;28;20123;-23
2023/05/26 13:12:31;;;;;;;4.57;1.63;;;26.10;50.20;;;;;;10500434;28;20140;-24
2023/05/26 13:17:33;;;;;;;3.53;1.45;;;26.50;48.50;;;;;;10503755;28;20071;-24
2023/05/26 13:22:40;;;;;;;5.65;2.33;;;26.30;50.50;;;;;;10490952;28;20044;-24
2023/05/26 13:27:42;;;;;;;7.07;1.67;;;26.40;49.70;;;;;;10488152;28;20056;-24
2023/05/26 13:32:44;;;;;;;3.47;1.42;;;26.70;51.10;;;;;;10491682;28;20076;-24
2023/05/26 13:37:47;;;;;;;7.53;1.88;;;26.80;50.70;;;;;;10486388;28;20538;-24
2023/05/26 13:42:49;;;;;;;7.35;1.67;;;27.20;48.60;;;;;;10498683;28;20143;-25
2023/05/26 13:47:51;;;;;;;4.65;1.58;;;27.40;47.90;;;;;;10488217;28;20448;-24
2023/05/26 13:52:54;;;;;;;3.08;1.38;;;27.70;49.00;;;;;;10485302;28;20122;-24
2023/05/26 13:57:57;;;;;;;3.05;1.33;;;27.60;48.40;;;;;;10500562;28;20568;-24
2023/05/26 14:02:59;;;;;;;10.45;2.40;;;27.90;48.60;;;;;;10487597;28;20048;-24
2023/05/26 14:08:05;;;;;;;5.68;1.60;;;28.10;48.00;;;;;;10498998;28;20759;-24
2023/05/26 14:13:06;;;;;;;10.77;1.98;;;27.80;49.10;;;;;;10487916;28;20063;-24
2023/05/26 14:18:08;;;;;;;12.02;1.60;;;28.10;48.50;;;;;;10499212;28;20558;-24
2023/05/26 14:23:11;;;;;;;5.25;1.45;;;28.10;43.80;;;;;;10494496;28;20060;-24
2023/05/26 14:28:13;;;;;;;11.35;2.80;;;27.70;48.00;;;;;;10485896;28;20044;-24
2023/05/26 14:33:15;;;;;;;7.85;1.80;;;28.30;46.00;;;;;;10484455;28;20477;-24
2023/05/26 14:38:18;;;;;;;8.15;1.77;;;28.00;47.00;;;;;;10482774;28;20072;-25
2023/05/26 14:43:20;;;;;;;6.80;2.53;;;27.70;48.10;;;;;;10491094;28;20159;-24
2023/05/26 14:48:22;;;;;;;6.40;2.00;;;28.10;47.10;;;;;;10488348;28;20063;-24
2023/05/26 14:53:25;;;;;;;10.18;2.63;;;28.70;46.00;;;;;;10490782;28;20059;-24
2023/05/26 14:58:27;;;;;;;7.90;2.75;;;28.70;45.80;;;;;;10488276;28;20059;-24
2023/05/26 15:03:29;;;;;;;25.13;8.85;;;28.70;44.80;;;;;;10494573;28;20404;-24
2023/05/26 15:08:32;;;;;;;25.33;8.85;;;28.40;46.00;;;;;;10500416;28;20040;-24
2023/05/26 15:13:34;;;;;;;23.88;7.43;;;28.60;43.90;;;;;;10489188;28;20045;-24
2023/05/26 15:18:36;;;;;;;24.92;7.38;;;29.20;45.90;;;;;;10486513;28;20543;-24
2023/05/26 15:23:40;;;;;;;24.70;8.85;;;29.70;47.60;;;;;;10496190;28;20039;-24
2023/05/26 15:28:41;;;;;;;19.98;6.28;;;29.60;48.30;;;;;;10483314;28;20090;-24
2023/05/26 15:33:43;;;;;;;25.88;8.07;;;29.70;46.90;;;;;;10497245;28;20053;-24
2023/05/26 15:38:47;;;;;;;14.63;4.78;;;29.50;47.60;;;;;;10492646;28;20477;-23
2023/05/26 15:43:48;;;;;;;16.33;5.43;;;29.10;44.90;;;;;;10501415;28;20044;-25
2023/05/26 15:48:50;;;;;;;16.40;5.05;;;30.00;46.90;;;;;;10492745;28;20051;-24
2023/05/26 15:53:53;;;;;;;14.60;3.90;;;30.10;48.20;;;;;;10486874;28;20135;-24
2023/05/26 15:58:55;;;;;;;14.23;4.80;;;30.50;47.80;;;;;;10485975;28;20481;-24
2023/05/26 16:03:58;;;;;;;11.65;3.38;;;30.60;47.70;;;;;;10487458;28;20556;-24
2023/05/26 16:09:01;;;;;;;11.48;3.42;;;30.70;52.70;;;;;;10485750;28;20086;-24
2023/05/26 16:14:03;;;;;;;9.23;3.00;;;30.90;54.00;;;;;;10483360;28;20071;-24
2023/05/26 16:19:04;;;;;;;5.88;2.55;;;31.30;53.20;;;;;;10487828;28;20108;-23
2023/05/26 16:24:08;;;;;;;6.30;2.72;;;31.50;55.30;;;;;;10469876;28;20126;-24
2023/05/26 16:29:10;;;;;;;6.03;2.25;;;31.40;57.60;;;;;;10479274;28;20051;-24
2023/05/26 16:34:13;;;;;;;5.65;1.98;;;31.50;59.10;;;;;;10491989;28;20038;-24
2023/05/26 16:39:16;;;;;;;8.40;2.63;;;31.80;59.60;;;;;;10497944;28;20138;-24
2023/05/26 16:44:18;;;;;;;5.40;2.28;;;31.60;52.90;;;;;;10498690;28;20057;-25
2023/05/26 16:49:20;;;;;;;10.68;2.17;;;31.60;51.20;;;;;;10488177;28;20190;-24
2023/05/26 16:54:23;;;;;;;5.60;1.95;;;31.90;50.50;;;;;;10491082;28;20052;-24
2023/05/26 16:59:25;;;;;;;7.78;2.25;;;31.70;51.60;;;;;;10473992;28;20044;-22
2023/05/26 17:04:27;;;;;;;6.30;1.90;;;31.30;49.30;;;;;;10468949;28;20094;-24
2023/05/26 17:09:31;;;;;;;8.23;1.90;;;31.10;51.00;;;;;;10477899;28;20136;-24
2023/05/26 17:14:33;;;;;;;6.80;2.40;;;31.30;52.50;;;;;;10472373;28;20147;-24
2023/05/26 17:19:35;;;;;;;5.90;2.05;;;31.80;58.00;;;;;;10479994;28;20040;-25
2023/05/26 17:24:39;;;;;;;10.35;3.47;;;31.70;54.10;;;;;;10483265;28;20072;-24
2023/05/26 17:29:40;;;;;;;10.90;2.00;;;31.70;58.30;;;;;;10490483;28;20137;-24
2023/05/26 17:34:42;;;;;;;6.57;2.83;;;31.80;57.60;;;;;;10475878;28;20082;-24
2023/05/26 17:39:45;;;;;;;8.57;2.63;;;31.50;52.40;;;;;;10487700;28;20047;-24
2023/05/26 17:44:47;;;;;;;6.05;2.40;;;31.60;56.70;;;;;;10498288;28;20597;-24
2023/05/26 17:49:49;;;;;;;7.88;3.00;;;31.60;52.60;;;;;;10490152;28;20070;-24
2023/05/26 17:54:52;;;;;;;5.93;2.60;;;31.50;54.40;;;;;;10487930;28;20135;-23
2023/05/26 17:59:54;;;;;;;6.10;2.40;;;31.40;54.60;;;;;;10489428;28;20044;-22
2023/05/26 18:04:56;;;;;;;12.75;2.65;;;31.10;51.70;;;;;;10487341;28;20048;-23
2023/05/26 18:09:59;;;;;;;12.55;3.97;;;30.00;45.10;;;;;;10485718;28;20783;-24
2023/05/26 18:15:01;;;;;;;10.70;3.63;;;30.10;47.20;;;;;;10487305;28;20151;-23
2023/05/26 18:20:04;;;;;;;16.25;3.30;;;30.40;48.50;;;;;;10488860;28;20128;-23
2023/05/26 18:25:08;;;;;;;11.38;4.78;;;30.30;50.00;;;;;;10488280;28;20131;-23
2023/05/26 18:30:14;;;;;;;9.07;3.67;;;30.50;50.70;;;;;;10483840;28;20044;-23
2023/05/26 18:35:17;;;;;;;8.23;1.90;;;30.30;51.70;;;;;;10490231;28;20159;-23
2023/05/26 18:40:21;;;;;;;7.10;2.22;;;30.30;52.30;;;;;;10484915;28;20048;-23
2023/05/26 18:45:22;;;;;;;7.15;2.72;;;30.20;51.50;;;;;;10485434;28;20135;-23
2023/05/26 18:50:24;;;;;;;8.20;2.40;;;30.00;49.50;;;;;;10473404;28;20071;-23
2023/05/26 18:55:29;;;;;;;7.40;2.10;;;30.10;52.20;;;;;;10483783;28;20084;-23
2023/05/26 19:00:32;;;;;;;6.00;2.05;;;30.00;50.60;;;;;;10480660;28;20049;-24
2023/05/26 19:05:35;;;;;;;4.28;2.03;;;29.90;51.70;;;;;;10487128;28;20047;-23
2023/05/26 19:10:39;;;;;;;5.35;1.92;;;29.80;50.30;;;;;;10492805;28;20050;-23
2023/05/26 19:15:42;;;;;;;4.32;1.90;;;29.80;51.10;;;;;;10487623;28;20418;-23
2023/05/26 19:20:44;;;;;;;4.68;1.75;;;29.80;51.20;;;;;;10476369;28;20072;-23
2023/05/26 19:25:47;;;;;;;7.28;2.20;;;29.60;51.10;;;;;;10485458;28;20055;-23
2023/05/26 19:30:49;;;;;;;3.60;1.67;;;29.60;51.30;;;;;;10487436;28;20128;-24
2023/05/26 19:35:51;;;;;;;4.97;1.70;;;29.40;51.50;;;;;;10481957;28;20090;-24
2023/05/26 19:40:54;;;;;;;6.72;2.50;;;29.30;51.60;;;;;;10488363;28;20064;-23
2023/05/26 19:45:56;;;;;;;4.15;1.67;;;29.40;52.50;;;;;;10485965;28;20040;-23
2023/05/26 19:50:57;;;;;;;5.38;2.28;;;29.40;52.80;;;;;;10486464;28;20063;-23
2023/05/26 19:56:00;;;;;;;4.25;1.65;;;29.20;52.90;;;;;;10493374;28;20564;-23
2023/05/26 20:01:02;;;;;;;4.43;1.65;;;29.00;52.90;;;;;;10480229;28;20125;-23
2023/05/26 20:06:05;;;;;;;5.40;1.90;;;28.90;52.90;;;;;;10493719;28;20143;-23
2023/05/26 20:11:08;;;;;;;5.55;2.05;;;28.90;52.40;;;;;;10482905;28;20822;-23
2023/05/26 20:16:10;;;;;;;3.80;1.65;;;28.70;52.50;;;;;;10493009;28;20075;-23
2023/05/26 20:21:12;;;;;;;4.38;2.03;;;28.60;52.50;;;;;;10492345;28;20044;-22
2023/05/26 20:26:15;;;;;;;4.43;2.05;;;28.50;52.40;;;;;;10491945;28;20045;-23
2023/05/26 20:31:19;;;;;;;6.20;1.80;;;28.40;52.40;;;;;;10491654;28;20106;-23
2023/05/26 20:36:21;;;;;;;4.57;1.40;;;28.30;52.40;;;;;;10491643;28;20048;-23
2023/05/26 20:41:25;;;;;;;6.65;1.75;;;28.20;52.40;;;;;;10499102;28;20051;-23
2023/05/26 20:46:27;;;;;;;4.72;1.73;;;28.10;52.30;;;;;;10504632;28;20503;-23
2023/05/26 20:51:30;;;;;;;3.97;1.70;;;28.00;52.40;;;;;;10475825;28;20054;-23
2023/05/26 20:56:33;;;;;;;7.10;1.77;;;27.90;52.60;;;;;;10490463;28;20063;-23
2023/05/26 21:01:35;;;;;;;6.50;1.95;;;27.80;52.50;;;;;;10491565;28;20068;-23
2023/05/26 21:06:37;;;;;;;5.47;2.47;;;27.60;52.50;;;;;;10494648;28;20102;-22
2023/05/26 21:11:40;;;;;;;7.95;2.35;;;27.60;52.40;;;;;;10492839;28;20473;-23
2023/05/26 21:16:42;;;;;;;5.00;2.35;;;27.50;52.60;;;;;;10487695;28;20500;-22
2023/05/26 21:21:44;;;;;;;7.97;2.88;;;27.30;52.90;;;;;;10501935;28;20107;-23
2023/05/26 21:26:47;;;;;;;7.25;3.50;;;27.40;53.00;;;;;;10499794;28;20056;-22
2023/05/26 21:31:49;;;;;;;6.60;3.42;;;27.30;53.00;;;;;;10487891;28;20091;-23
2023/05/26 21:36:51;;;;;;;8.32;3.50;;;27.20;53.10;;;;;;10494220;28;20141;-23
2023/05/26 21:41:55;;;;;;;10.25;4.47;;;27.20;53.20;;;;;;10485458;28;20676;-27
2023/05/26 21:46:57;;;;;;;9.43;3.97;;;27.10;53.10;;;;;;10477916;28;20129;-24
2023/05/26 21:51:58;;;;;;;9.75;4.38;;;27.00;53.00;;;;;;10491079;28;20044;-23
2023/05/26 21:57:02;;;;;;;9.18;3.90;;;27.00;52.80;;;;;;10492294;28;20047;-23
2023/05/26 22:02:04;;;;;;;10.98;4.03;;;26.90;52.80;;;;;;10501094;28;20052;-22
2023/05/26 22:07:06;;;;;;;9.60;4.18;;;26.80;52.70;;;;;;10500235;28;20040;-23
2023/05/26 22:12:10;;;;;;;9.63;4.97;;;26.70;52.60;;;;;;10490857;28;20064;-22
2023/05/26 22:17:12;;;;;;;9.45;4.75;;;26.70;52.60;;;;;;10487515;28;20052;-22
2023/05/26 22:22:13;;;;;;;11.18;5.53;;;26.60;52.50;;;;;;10490805;28;20048;-23
2023/05/26 22:27:17;;;;;;;11.82;5.90;;;26.50;52.50;;;;;;10503645;28;20051;-23
2023/05/26 22:32:19;;;;;;;13.02;6.50;;;26.40;52.60;;;;;;10491913;28;20460;-23
2023/05/26 22:37:21;;;;;;;12.70;6.72;;;26.30;52.40;;;;;;10490348;28;20192;-23
2023/05/26 22:42:24;;;;;;;15.70;8.00;;;26.30;52.40;;;;;;10486660;28;20052;-24
2023/05/26 22:47:26;;;;;;;15.50;8.23;;;26.20;52.50;;;;;;10490724;28;20044;-23
2023/05/26 22:52:30;;;;;;;17.73;8.38;;;26.10;52.40;;;;;;10492668;28;20037;-23
2023/05/26 22:57:34;;;;;;;18.88;8.43;;;26.10;53.00;;;;;;10500771;28;20052;-23
2023/05/26 23:02:36;;;;;;;18.20;8.88;;;26.00;52.50;;;;;;10495773;28;20102;-22
2023/05/26 23:07:38;;;;;;;16.58;8.88;;;25.90;52.50;;;;;;10482096;28;20132;-23
2023/05/26 23:12:41;;;;;;;15.38;9.25;;;25.90;52.30;;;;;;10497469;28;20044;-23
2023/05/26 23:17:43;;;;;;;18.55;8.80;;;25.80;52.60;;;;;;10488582;28;20059;-23
2023/05/26 23:22:45;;;;;;;21.98;10.00;;;25.70;52.50;;;;;;10496478;28;20068;-23
2023/05/26 23:27:48;;;;;;;19.33;9.95;;;25.70;53.20;;;;;;10489845;28;20079;-22
2023/05/26 23:32:50;;;;;;;20.80;9.70;;;25.60;52.50;;;;;;10493508;28;20147;-23
2023/05/26 23:37:52;;;;;;;17.05;9.98;;;25.50;52.50;;;;;;10493802;28;20044;-22
2023/05/26 23:42:55;;;;;;;16.85;8.98;;;25.50;52.30;;;;;;10486993;28;20572;-23
2023/05/26 23:47:57;;;;;;;21.23;10.90;;;25.40;52.50;;;;;;10496581;28;20044;-24
2023/05/26 23:52:59;;;;;;;17.65;8.30;;;25.30;52.30;;;;;;10469862;28;20099;-23
2023/05/26 23:58:02;;;;;;;19.77;10.38;;;25.30;52.30;;;;;;10503242;28;20139;-24
